sensor_id;sensor_type;location;lat;lon;timestamp;temperature;humidity
56298;DHT22;42208;6.376;-10.782;2023-02-14T00:01:30;26.60;99.90
56298;DHT22;42208;6.376;-10.782;2023-02-14T00:03:58;26.60;99.90
56298;DHT22;42208;6.376;-10.782;2023-02-14T00:06:27;26.50;99.90
56298;DHT22;42208;6.376;-10.782;2023-02-14T00:08:58;26.60;99.90
56298;DHT22;42208;6.376;-10.782;2023-02-14T00:11:27;26.60;99.90
56298;DHT22;42208;6.376;-10.782;2023-02-14T00:13:55;26.60;99.90
56298;DHT22;42208;6.376;-10.782;2023-02-14T00:16:24;26.60;99.90
56298;DHT22;42208;6.376;-10.782;2023-02-14T00:18:52;26.60;99.90
56298;DHT22;42208;6.376;-10.782;2023-02-14T00:21:20;26.50;99.90
56298;DHT22;42208;6.376;-10.782;2023-02-14T00:23:48;26.50;99.90
56298;DHT22;42208;6.376;-10.782;2023-02-14T00:26:17;26.50;99.90
56298;DHT22;42208;6.376;-10.782;2023-02-14T00:28:46;26.50;99.90
56298;DHT22;42208;6.376;-10.782;2023-02-14T00:31:15;26.60;99.90
56298;DHT22;42208;6.376;-10.782;2023-02-14T00:33:43;26.60;99.90
56298;DHT22;42208;6.376;-10.782;2023-02-14T00:36:12;26.60;99.90
56298;DHT22;42208;6.376;-10.782;2023-02-14T00:38:40;26.50;99.90
56298;DHT22;42208;6.376;-10.782;2023-02-14T00:41:09;26.50;99.90
56298;DHT22;42208;6.376;-10.782;2023-02-14T00:43:37;26.50;99.90
56298;DHT22;42208;6.376;-10.782;2023-02-14T00:46:05;26.40;99.90
56298;DHT22;42208;6.376;-10.782;2023-02-14T00:48:33;26.40;99.90
56298;DHT22;42208;6.376;-10.782;2023-02-14T00:51:02;26.40;99.90
56298;DHT22;42208;6.376;-10.782;2023-02-14T00:53:30;26.40;99.90
56298;DHT22;42208;6.376;-10.782;2023-02-14T00:55:59;26.40;99.90
56298;DHT22;42208;6.376;-10.782;2023-02-14T00:58:27;26.30;99.90
56298;DHT22;42208;6.376;-10.782;2023-02-14T01:00:56;26.30;99.90
56298;DHT22;42208;6.376;-10.782;2023-02-14T01:03:25;26.30;99.90
56298;DHT22;42208;6.376;-10.782;2023-02-14T01:05:54;26.30;99.90
56298;DHT22;42208;6.376;-10.782;2023-02-14T01:08:22;26.30;99.90
56298;DHT22;42208;6.376;-10.782;2023-02-14T01:10:51;26.30;99.90
56298;DHT22;42208;6.376;-10.782;2023-02-14T01:13:20;26.30;99.90
56298;DHT22;42208;6.376;-10.782;2023-02-14T01:15:50;26.30;99.90
56298;DHT22;42208;6.376;-10.782;2023-02-14T01:18:18;26.20;99.90
56298;DHT22;42208;6.376;-10.782;2023-02-14T01:20:47;26.20;99.90
56298;DHT22;42208;6.376;-10.782;2023-02-14T01:23:16;26.20;99.90
56298;DHT22;42208;6.376;-10.782;2023-02-14T01:25:44;26.10;99.90
56298;DHT22;42208;6.376;-10.782;2023-02-14T01:28:12;26.10;99.90
56298;DHT22;42208;6.376;-10.782;2023-02-14T01:30:41;26.00;99.90
56298;DHT22;42208;6.376;-10.782;2023-02-14T01:33:09;26.10;99.90
56298;DHT22;42208;6.376;-10.782;2023-02-14T01:35:37;26.00;99.90
56298;DHT22;42208;6.376;-10.782;2023-02-14T01:38:06;26.10;99.90
56298;DHT22;42208;6.376;-10.782;2023-02-14T01:40:38;26.00;99.90
56298;DHT22;42208;6.376;-10.782;2023-02-14T01:43:14;26.00;99.90
56298;DHT22;42208;6.376;-10.782;2023-02-14T01:45:44;26.00;99.90
56298;DHT22;42208;6.376;-10.782;2023-02-14T01:48:12;26.10;99.90
56298;DHT22;42208;6.376;-10.782;2023-02-14T01:50:43;26.00;99.90
56298;DHT22;42208;6.376;-10.782;2023-02-14T01:53:16;26.00;99.90
56298;DHT22;42208;6.376;-10.782;2023-02-14T01:55:51;26.00;99.90
56298;DHT22;42208;6.376;-10.782;2023-02-14T01:58:24;26.00;99.90
56298;DHT22;42208;6.376;-10.782;2023-02-14T02:00:54;26.00;99.90
56298;DHT22;42208;6.376;-10.782;2023-02-14T02:03:33;26.00;99.90
56298;DHT22;42208;6.376;-10.782;2023-02-14T02:08:41;26.10;99.90
56298;DHT22;42208;6.376;-10.782;2023-02-14T02:11:13;26.10;99.90
56298;DHT22;42208;6.376;-10.782;2023-02-14T02:13:41;26.10;99.90
56298;DHT22;42208;6.376;-10.782;2023-02-14T02:16:33;26.10;99.90
56298;DHT22;42208;6.376;-10.782;2023-02-14T02:24:58;26.10;99.90
56298;DHT22;42208;6.376;-10.782;2023-02-14T02:36:38;26.00;99.90
56298;DHT22;42208;6.376;-10.782;2023-02-14T02:42:16;25.90;99.90
56298;DHT22;42208;6.376;-10.782;2023-02-14T02:48:12;25.90;99.90
56298;DHT22;42208;6.376;-10.782;2023-02-14T02:50:48;25.80;99.90
56298;DHT22;42208;6.376;-10.782;2023-02-14T02:53:43;25.80;99.90
56298;DHT22;42208;6.376;-10.782;2023-02-14T02:56:24;25.90;99.90
56298;DHT22;42208;6.376;-10.782;2023-02-14T02:59:18;25.90;99.90
56298;DHT22;42208;6.376;-10.782;2023-02-14T03:02:15;25.90;99.90
56298;DHT22;42208;6.376;-10.782;2023-02-14T03:04:53;25.80;99.90
56298;DHT22;42208;6.376;-10.782;2023-02-14T03:07:39;25.80;99.90
56298;DHT22;42208;6.376;-10.782;2023-02-14T03:10:21;25.80;99.90
56298;DHT22;42208;6.376;-10.782;2023-02-14T03:24:55;25.70;99.90
56298;DHT22;42208;6.376;-10.782;2023-02-14T03:27:47;25.60;99.90
56298;DHT22;42208;6.376;-10.782;2023-02-14T03:30:32;25.60;99.90
56298;DHT22;42208;6.376;-10.782;2023-02-14T03:33:25;25.70;99.90
56298;DHT22;42208;6.376;-10.782;2023-02-14T03:42:06;25.60;99.90
56298;DHT22;42208;6.376;-10.782;2023-02-14T03:44:37;25.60;99.90
56298;DHT22;42208;6.376;-10.782;2023-02-14T03:47:13;25.50;99.90
56298;DHT22;42208;6.376;-10.782;2023-02-14T03:50:08;25.50;99.90
56298;DHT22;42208;6.376;-10.782;2023-02-14T03:52:38;25.50;99.90
56298;DHT22;42208;6.376;-10.782;2023-02-14T03:55:07;25.50;99.90
56298;DHT22;42208;6.376;-10.782;2023-02-14T04:00:08;25.60;99.90
56298;DHT22;42208;6.376;-10.782;2023-02-14T04:02:45;25.60;99.90
56298;DHT22;42208;6.376;-10.782;2023-02-14T04:05:21;25.50;99.90
56298;DHT22;42208;6.376;-10.782;2023-02-14T04:07:53;25.40;99.90
56298;DHT22;42208;6.376;-10.782;2023-02-14T04:10:22;25.50;99.90
56298;DHT22;42208;6.376;-10.782;2023-02-14T04:12:51;25.40;99.90
56298;DHT22;42208;6.376;-10.782;2023-02-14T04:15:19;25.40;99.90
56298;DHT22;42208;6.376;-10.782;2023-02-14T04:17:48;25.40;99.90
56298;DHT22;42208;6.376;-10.782;2023-02-14T04:20:16;25.40;99.90
56298;DHT22;42208;6.376;-10.782;2023-02-14T04:22:45;25.40;99.90
56298;DHT22;42208;6.376;-10.782;2023-02-14T04:25:14;25.40;99.90
56298;DHT22;42208;6.376;-10.782;2023-02-14T04:27:42;25.50;99.90
56298;DHT22;42208;6.376;-10.782;2023-02-14T04:30:11;25.40;99.90
56298;DHT22;42208;6.376;-10.782;2023-02-14T04:32:39;25.40;99.90
56298;DHT22;42208;6.376;-10.782;2023-02-14T04:35:08;25.40;99.90
56298;DHT22;42208;6.376;-10.782;2023-02-14T04:37:36;25.40;99.90
56298;DHT22;42208;6.376;-10.782;2023-02-14T04:40:05;25.40;99.90
56298;DHT22;42208;6.376;-10.782;2023-02-14T04:42:33;25.40;99.90
56298;DHT22;42208;6.376;-10.782;2023-02-14T04:45:02;25.40;99.90
56298;DHT22;42208;6.376;-10.782;2023-02-14T04:47:31;25.40;99.90
56298;DHT22;42208;6.376;-10.782;2023-02-14T04:49:59;25.40;99.90
56298;DHT22;42208;6.376;-10.782;2023-02-14T04:52:27;25.30;99.90
56298;DHT22;42208;6.376;-10.782;2023-02-14T04:54:55;25.30;99.90
56298;DHT22;42208;6.376;-10.782;2023-02-14T04:57:24;25.40;99.90
56298;DHT22;42208;6.376;-10.782;2023-02-14T04:59:52;25.30;99.90
56298;DHT22;42208;6.376;-10.782;2023-02-14T05:02:20;25.30;99.90
56298;DHT22;42208;6.376;-10.782;2023-02-14T05:04:49;25.30;99.90
56298;DHT22;42208;6.376;-10.782;2023-02-14T05:07:17;25.20;99.90
56298;DHT22;42208;6.376;-10.782;2023-02-14T05:09:45;25.20;99.90
56298;DHT22;42208;6.376;-10.782;2023-02-14T05:12:15;25.20;99.90
56298;DHT22;42208;6.376;-10.782;2023-02-14T05:14:43;25.20;99.90
56298;DHT22;42208;6.376;-10.782;2023-02-14T05:17:11;25.20;99.90
56298;DHT22;42208;6.376;-10.782;2023-02-14T05:19:40;25.20;99.90
56298;DHT22;42208;6.376;-10.782;2023-02-14T05:22:08;25.20;99.90
56298;DHT22;42208;6.376;-10.782;2023-02-14T05:24:36;25.20;99.90
56298;DHT22;42208;6.376;-10.782;2023-02-14T05:27:05;25.20;99.90
56298;DHT22;42208;6.376;-10.782;2023-02-14T05:29:34;25.20;99.90
56298;DHT22;42208;6.376;-10.782;2023-02-14T05:32:02;25.20;99.90
56298;DHT22;42208;6.376;-10.782;2023-02-14T05:34:31;25.20;99.90
56298;DHT22;42208;6.376;-10.782;2023-02-14T05:36:59;25.20;99.90
56298;DHT22;42208;6.376;-10.782;2023-02-14T05:39:27;25.10;99.90
56298;DHT22;42208;6.376;-10.782;2023-02-14T05:41:56;25.10;99.90
56298;DHT22;42208;6.376;-10.782;2023-02-14T05:44:25;25.10;99.90
56298;DHT22;42208;6.376;-10.782;2023-02-14T05:46:54;25.10;99.90
56298;DHT22;42208;6.376;-10.782;2023-02-14T05:49:28;25.10;99.90
56298;DHT22;42208;6.376;-10.782;2023-02-14T05:51:57;25.00;99.90
56298;DHT22;42208;6.376;-10.782;2023-02-14T05:54:25;25.00;99.90
56298;DHT22;42208;6.376;-10.782;2023-02-14T05:56:53;25.00;99.90
56298;DHT22;42208;6.376;-10.782;2023-02-14T05:59:21;25.10;99.90
56298;DHT22;42208;6.376;-10.782;2023-02-14T06:01:50;25.10;99.90
56298;DHT22;42208;6.376;-10.782;2023-02-14T06:07:33;25.10;99.90
56298;DHT22;42208;6.376;-10.782;2023-02-14T06:10:57;25.10;99.90
56298;DHT22;42208;6.376;-10.782;2023-02-14T06:13:25;25.00;99.90
56298;DHT22;42208;6.376;-10.782;2023-02-14T06:15:54;25.00;99.90
56298;DHT22;42208;6.376;-10.782;2023-02-14T06:18:22;25.00;99.90
56298;DHT22;42208;6.376;-10.782;2023-02-14T06:20:53;25.00;99.90
56298;DHT22;42208;6.376;-10.782;2023-02-14T06:23:22;25.00;99.90
56298;DHT22;42208;6.376;-10.782;2023-02-14T06:25:50;24.90;99.90
56298;DHT22;42208;6.376;-10.782;2023-02-14T06:28:18;25.00;99.90
56298;DHT22;42208;6.376;-10.782;2023-02-14T06:30:47;24.90;99.90
56298;DHT22;42208;6.376;-10.782;2023-02-14T06:33:15;24.90;99.90
56298;DHT22;42208;6.376;-10.782;2023-02-14T06:35:44;25.00;99.90
56298;DHT22;42208;6.376;-10.782;2023-02-14T06:38:12;25.00;99.90
56298;DHT22;42208;6.376;-10.782;2023-02-14T06:40:40;25.00;99.90
56298;DHT22;42208;6.376;-10.782;2023-02-14T06:43:08;25.00;99.90
56298;DHT22;42208;6.376;-10.782;2023-02-14T06:45:37;25.00;99.90
56298;DHT22;42208;6.376;-10.782;2023-02-14T06:48:05;25.00;99.90
56298;DHT22;42208;6.376;-10.782;2023-02-14T06:50:34;25.00;99.90
56298;DHT22;42208;6.376;-10.782;2023-02-14T06:53:02;25.10;99.90
56298;DHT22;42208;6.376;-10.782;2023-02-14T06:55:31;25.00;99.90
56298;DHT22;42208;6.376;-10.782;2023-02-14T06:57:59;25.00;99.90
56298;DHT22;42208;6.376;-10.782;2023-02-14T07:00:27;25.10;99.90
56298;DHT22;42208;6.376;-10.782;2023-02-14T07:02:56;25.10;99.90
56298;DHT22;42208;6.376;-10.782;2023-02-14T07:05:28;25.10;99.90
56298;DHT22;42208;6.376;-10.782;2023-02-14T07:10:37;25.10;99.90
56298;DHT22;42208;6.376;-10.782;2023-02-14T07:13:05;25.10;99.90
56298;DHT22;42208;6.376;-10.782;2023-02-14T07:15:34;25.10;99.90
56298;DHT22;42208;6.376;-10.782;2023-02-14T07:18:17;25.20;99.90
56298;DHT22;42208;6.376;-10.782;2023-02-14T07:20:47;25.20;99.90
56298;DHT22;42208;6.376;-10.782;2023-02-14T07:23:24;25.20;99.90
56298;DHT22;42208;6.376;-10.782;2023-02-14T07:25:53;25.20;99.90
56298;DHT22;42208;6.376;-10.782;2023-02-14T07:28:21;25.30;99.90
56298;DHT22;42208;6.376;-10.782;2023-02-14T07:30:50;25.30;99.90
56298;DHT22;42208;6.376;-10.782;2023-02-14T07:33:18;25.30;99.90
56298;DHT22;42208;6.376;-10.782;2023-02-14T07:35:49;25.40;99.90
56298;DHT22;42208;6.376;-10.782;2023-02-14T07:38:17;25.40;99.90
56298;DHT22;42208;6.376;-10.782;2023-02-14T07:40:45;25.40;99.90
56298;DHT22;42208;6.376;-10.782;2023-02-14T07:43:14;25.40;99.90
56298;DHT22;42208;6.376;-10.782;2023-02-14T07:45:42;25.40;99.90
56298;DHT22;42208;6.376;-10.782;2023-02-14T07:48:10;25.50;99.90
56298;DHT22;42208;6.376;-10.782;2023-02-14T07:50:39;25.40;99.90
56298;DHT22;42208;6.376;-10.782;2023-02-14T07:53:07;25.50;99.90
56298;DHT22;42208;6.376;-10.782;2023-02-14T07:55:35;25.50;99.90
56298;DHT22;42208;6.376;-10.782;2023-02-14T07:58:04;25.50;99.90
56298;DHT22;42208;6.376;-10.782;2023-02-14T08:00:32;25.50;99.90
56298;DHT22;42208;6.376;-10.782;2023-02-14T08:03:01;25.50;99.90
56298;DHT22;42208;6.376;-10.782;2023-02-14T08:05:29;25.50;99.90
56298;DHT22;42208;6.376;-10.782;2023-02-14T08:07:57;25.50;99.90
56298;DHT22;42208;6.376;-10.782;2023-02-14T08:10:26;25.60;99.90
56298;DHT22;42208;6.376;-10.782;2023-02-14T08:12:54;25.60;99.90
56298;DHT22;42208;6.376;-10.782;2023-02-14T08:15:33;25.60;99.90
56298;DHT22;42208;6.376;-10.782;2023-02-14T08:18:02;25.70;99.90
56298;DHT22;42208;6.376;-10.782;2023-02-14T08:20:30;25.80;99.90
56298;DHT22;42208;6.376;-10.782;2023-02-14T08:22:59;25.80;99.90
56298;DHT22;42208;6.376;-10.782;2023-02-14T08:25:27;25.90;99.90
56298;DHT22;42208;6.376;-10.782;2023-02-14T08:27:55;25.90;99.90
56298;DHT22;42208;6.376;-10.782;2023-02-14T08:30:23;25.90;99.90
56298;DHT22;42208;6.376;-10.782;2023-02-14T08:32:52;25.90;99.90
56298;DHT22;42208;6.376;-10.782;2023-02-14T08:35:21;26.00;99.90
56298;DHT22;42208;6.376;-10.782;2023-02-14T08:37:52;26.00;99.90
56298;DHT22;42208;6.376;-10.782;2023-02-14T08:40:20;26.10;99.90
56298;DHT22;42208;6.376;-10.782;2023-02-14T08:42:49;26.20;99.90
56298;DHT22;42208;6.376;-10.782;2023-02-14T08:45:17;26.20;99.90
56298;DHT22;42208;6.376;-10.782;2023-02-14T08:47:46;26.30;99.90
56298;DHT22;42208;6.376;-10.782;2023-02-14T08:50:17;26.40;99.90
56298;DHT22;42208;6.376;-10.782;2023-02-14T08:52:45;26.40;99.90
56298;DHT22;42208;6.376;-10.782;2023-02-14T08:55:13;26.50;99.90
56298;DHT22;42208;6.376;-10.782;2023-02-14T08:57:42;26.50;99.90
56298;DHT22;42208;6.376;-10.782;2023-02-14T09:00:11;26.60;99.90
56298;DHT22;42208;6.376;-10.782;2023-02-14T09:02:39;26.60;99.90
56298;DHT22;42208;6.376;-10.782;2023-02-14T09:05:07;26.60;99.90
56298;DHT22;42208;6.376;-10.782;2023-02-14T09:07:36;26.70;99.90
56298;DHT22;42208;6.376;-10.782;2023-02-14T09:10:05;26.70;99.90
56298;DHT22;42208;6.376;-10.782;2023-02-14T09:12:33;26.70;99.90
56298;DHT22;42208;6.376;-10.782;2023-02-14T09:15:03;26.80;99.90
56298;DHT22;42208;6.376;-10.782;2023-02-14T09:17:31;26.80;99.90
56298;DHT22;42208;6.376;-10.782;2023-02-14T09:20:07;26.80;99.90
56298;DHT22;42208;6.376;-10.782;2023-02-14T09:22:37;26.90;99.90
56298;DHT22;42208;6.376;-10.782;2023-02-14T09:25:06;26.90;99.90
56298;DHT22;42208;6.376;-10.782;2023-02-14T09:27:34;26.90;99.90
56298;DHT22;42208;6.376;-10.782;2023-02-14T09:30:04;27.00;99.90
56298;DHT22;42208;6.376;-10.782;2023-02-14T09:32:32;27.10;99.90
56298;DHT22;42208;6.376;-10.782;2023-02-14T09:35:01;27.10;99.90
56298;DHT22;42208;6.376;-10.782;2023-02-14T09:37:29;27.20;99.90
56298;DHT22;42208;6.376;-10.782;2023-02-14T09:39:57;27.30;99.90
56298;DHT22;42208;6.376;-10.782;2023-02-14T09:42:55;27.30;99.90
56298;DHT22;42208;6.376;-10.782;2023-02-14T09:45:28;27.40;99.90
56298;DHT22;42208;6.376;-10.782;2023-02-14T09:48:13;27.40;99.90
56298;DHT22;42208;6.376;-10.782;2023-02-14T09:50:51;27.50;99.90
56298;DHT22;42208;6.376;-10.782;2023-02-14T09:53:44;27.50;99.90
56298;DHT22;42208;6.376;-10.782;2023-02-14T09:56:22;27.50;99.90
56298;DHT22;42208;6.376;-10.782;2023-02-14T10:05:09;27.70;99.90
56298;DHT22;42208;6.376;-10.782;2023-02-14T10:08:04;27.80;99.90
56298;DHT22;42208;6.376;-10.782;2023-02-14T10:10:43;27.80;99.90
56298;DHT22;42208;6.376;-10.782;2023-02-14T10:13:37;27.80;99.90
56298;DHT22;42208;6.376;-10.782;2023-02-14T10:17:14;27.80;99.90
56298;DHT22;42208;6.376;-10.782;2023-02-14T10:24:42;28.10;99.90
56298;DHT22;42208;6.376;-10.782;2023-02-14T10:30:01;28.10;99.90
56298;DHT22;42208;6.376;-10.782;2023-02-14T10:32:48;28.10;99.90
56298;DHT22;42208;6.376;-10.782;2023-02-14T10:41:19;28.50;99.90
56298;DHT22;42208;6.376;-10.782;2023-02-14T10:52:47;28.70;99.90
56298;DHT22;42208;6.376;-10.782;2023-02-14T10:55:21;28.70;99.90
56298;DHT22;42208;6.376;-10.782;2023-02-14T10:58:02;28.70;99.90
56298;DHT22;42208;6.376;-10.782;2023-02-14T11:00:34;28.70;99.90
56298;DHT22;42208;6.376;-10.782;2023-02-14T11:03:05;28.70;99.90
56298;DHT22;42208;6.376;-10.782;2023-02-14T11:05:42;28.60;99.90
56298;DHT22;42208;6.376;-10.782;2023-02-14T11:08:37;28.60;99.90
56298;DHT22;42208;6.376;-10.782;2023-02-14T11:11:26;28.40;99.90
56298;DHT22;42208;6.376;-10.782;2023-02-14T11:14:02;28.40;99.90
56298;DHT22;42208;6.376;-10.782;2023-02-14T11:16:44;28.50;99.90
56298;DHT22;42208;6.376;-10.782;2023-02-14T11:21:58;28.70;99.90
56298;DHT22;42208;6.376;-10.782;2023-02-14T11:24:37;28.90;99.90
56298;DHT22;42208;6.376;-10.782;2023-02-14T11:32:14;29.00;99.90
56298;DHT22;42208;6.376;-10.782;2023-02-14T11:35:18;29.10;99.90
56298;DHT22;42208;6.376;-10.782;2023-02-14T11:37:51;29.10;99.90
56298;DHT22;42208;6.376;-10.782;2023-02-14T11:40:29;29.30;99.90
56298;DHT22;42208;6.376;-10.782;2023-02-14T11:45:47;29.30;99.90
56298;DHT22;42208;6.376;-10.782;2023-02-14T11:48:21;29.40;99.90
56298;DHT22;42208;6.376;-10.782;2023-02-14T11:51:08;29.50;99.90
56298;DHT22;42208;6.376;-10.782;2023-02-14T11:56:05;29.50;99.90
56298;DHT22;42208;6.376;-10.782;2023-02-14T11:58:36;29.50;99.90
56298;DHT22;42208;6.376;-10.782;2023-02-14T12:01:06;29.60;99.90
56298;DHT22;42208;6.376;-10.782;2023-02-14T12:03:43;29.50;99.90
56298;DHT22;42208;6.376;-10.782;2023-02-14T12:06:26;29.60;99.90
56298;DHT22;42208;6.376;-10.782;2023-02-14T12:12:03;29.60;99.90
56298;DHT22;42208;6.376;-10.782;2023-02-14T12:14:33;29.70;99.90
56298;DHT22;42208;6.376;-10.782;2023-02-14T12:20:18;29.50;99.90
56298;DHT22;42208;6.376;-10.782;2023-02-14T12:22:55;29.60;99.90
56298;DHT22;42208;6.376;-10.782;2023-02-14T12:25:39;29.60;99.90
56298;DHT22;42208;6.376;-10.782;2023-02-14T12:28:12;29.80;99.90
56298;DHT22;42208;6.376;-10.782;2023-02-14T12:30:42;29.90;99.90
56298;DHT22;42208;6.376;-10.782;2023-02-14T12:33:20;30.00;99.90
56298;DHT22;42208;6.376;-10.782;2023-02-14T12:36:32;30.20;99.90
56298;DHT22;42208;6.376;-10.782;2023-02-14T12:39:21;30.10;99.90
56298;DHT22;42208;6.376;-10.782;2023-02-14T12:47:51;30.20;99.90
56298;DHT22;42208;6.376;-10.782;2023-02-14T12:50:33;30.20;99.90
56298;DHT22;42208;6.376;-10.782;2023-02-14T12:53:36;30.20;99.90
56298;DHT22;42208;6.376;-10.782;2023-02-14T12:56:23;30.20;99.90
56298;DHT22;42208;6.376;-10.782;2023-02-14T13:15:29;29.90;99.90
56298;DHT22;42208;6.376;-10.782;2023-02-14T13:20:54;29.90;99.90
56298;DHT22;42208;6.376;-10.782;2023-02-14T13:23:25;29.80;99.90
56298;DHT22;42208;6.376;-10.782;2023-02-14T13:26:19;29.90;99.90
56298;DHT22;42208;6.376;-10.782;2023-02-14T13:29:00;29.90;99.90
56298;DHT22;42208;6.376;-10.782;2023-02-14T13:31:30;30.00;99.90
56298;DHT22;42208;6.376;-10.782;2023-02-14T13:34:07;30.10;99.90
56298;DHT22;42208;6.376;-10.782;2023-02-14T13:36:41;30.20;99.90
56298;DHT22;42208;6.376;-10.782;2023-02-14T13:39:18;30.00;99.90
56298;DHT22;42208;6.376;-10.782;2023-02-14T13:43:00;30.00;99.90
56298;DHT22;42208;6.376;-10.782;2023-02-14T13:48:16;30.20;99.90
56298;DHT22;42208;6.376;-10.782;2023-02-14T13:53:34;29.90;99.90
56298;DHT22;42208;6.376;-10.782;2023-02-14T13:58:34;30.10;99.90
56298;DHT22;42208;6.376;-10.782;2023-02-14T14:07:18;30.30;99.90
56298;DHT22;42208;6.376;-10.782;2023-02-14T14:09:51;30.30;99.90
56298;DHT22;42208;6.376;-10.782;2023-02-14T14:15:14;30.40;99.90
56298;DHT22;42208;6.376;-10.782;2023-02-14T14:17:48;30.10;99.90
56298;DHT22;42208;6.376;-10.782;2023-02-14T14:20:44;30.00;99.90
56298;DHT22;42208;6.376;-10.782;2023-02-14T14:23:32;30.00;99.90
56298;DHT22;42208;6.376;-10.782;2023-02-14T14:26:18;30.00;99.90
56298;DHT22;42208;6.376;-10.782;2023-02-14T14:28:51;30.00;99.90
56298;DHT22;42208;6.376;-10.782;2023-02-14T14:31:19;29.90;99.90
56298;DHT22;42208;6.376;-10.782;2023-02-14T14:33:58;29.90;99.90
56298;DHT22;42208;6.376;-10.782;2023-02-14T14:36:27;29.70;99.90
56298;DHT22;42208;6.376;-10.782;2023-02-14T14:38:55;29.80;99.90
56298;DHT22;42208;6.376;-10.782;2023-02-14T14:41:27;29.80;99.90
56298;DHT22;42208;6.376;-10.782;2023-02-14T14:43:58;29.80;99.90
56298;DHT22;42208;6.376;-10.782;2023-02-14T14:46:27;29.90;99.90
56298;DHT22;42208;6.376;-10.782;2023-02-14T14:48:56;29.80;99.90
56298;DHT22;42208;6.376;-10.782;2023-02-14T14:51:29;29.90;99.90
56298;DHT22;42208;6.376;-10.782;2023-02-14T14:54:03;29.90;99.90
56298;DHT22;42208;6.376;-10.782;2023-02-14T14:56:37;29.80;99.90
56298;DHT22;42208;6.376;-10.782;2023-02-14T15:01:50;29.80;99.90
56298;DHT22;42208;6.376;-10.782;2023-02-14T15:04:30;29.90;99.90
56298;DHT22;42208;6.376;-10.782;2023-02-14T15:07:18;29.90;99.90
56298;DHT22;42208;6.376;-10.782;2023-02-14T15:09:47;29.80;99.90
56298;DHT22;42208;6.376;-10.782;2023-02-14T15:13:50;29.70;99.90
56298;DHT22;42208;6.376;-10.782;2023-02-14T15:16:28;30.00;99.90
56298;DHT22;42208;6.376;-10.782;2023-02-14T15:19:06;30.30;99.90
56298;DHT22;42208;6.376;-10.782;2023-02-14T15:21:36;30.40;99.90
56298;DHT22;42208;6.376;-10.782;2023-02-14T15:24:14;30.60;99.90
56298;DHT22;42208;6.376;-10.782;2023-02-14T15:26:45;30.70;99.90
56298;DHT22;42208;6.376;-10.782;2023-02-14T15:29:23;30.70;99.90
56298;DHT22;42208;6.376;-10.782;2023-02-14T15:31:53;30.90;99.90
56298;DHT22;42208;6.376;-10.782;2023-02-14T15:34:28;30.90;99.90
56298;DHT22;42208;6.376;-10.782;2023-02-14T15:36:59;30.80;99.90
56298;DHT22;42208;6.376;-10.782;2023-02-14T15:39:36;30.90;99.90
56298;DHT22;42208;6.376;-10.782;2023-02-14T15:42:16;31.00;99.90
56298;DHT22;42208;6.376;-10.782;2023-02-14T15:44:46;30.90;99.90
56298;DHT22;42208;6.376;-10.782;2023-02-14T15:47:14;31.10;99.90
56298;DHT22;42208;6.376;-10.782;2023-02-14T15:49:44;31.50;99.90
56298;DHT22;42208;6.376;-10.782;2023-02-14T15:52:13;31.20;99.90
56298;DHT22;42208;6.376;-10.782;2023-02-14T15:54:44;31.30;99.90
56298;DHT22;42208;6.376;-10.782;2023-02-14T15:57:30;31.30;99.90
56298;DHT22;42208;6.376;-10.782;2023-02-14T15:59:59;31.30;99.90
56298;DHT22;42208;6.376;-10.782;2023-02-14T16:02:34;31.10;99.90
56298;DHT22;42208;6.376;-10.782;2023-02-14T16:08:05;31.30;99.90
56298;DHT22;42208;6.376;-10.782;2023-02-14T16:10:35;31.50;99.90
56298;DHT22;42208;6.376;-10.782;2023-02-14T16:15:35;31.30;99.90
56298;DHT22;42208;6.376;-10.782;2023-02-14T16:18:31;31.20;99.90
56298;DHT22;42208;6.376;-10.782;2023-02-14T16:21:20;31.30;99.90
56298;DHT22;42208;6.376;-10.782;2023-02-14T16:26:38;31.40;99.90
56298;DHT22;42208;6.376;-10.782;2023-02-14T16:29:11;31.60;99.90
56298;DHT22;42208;6.376;-10.782;2023-02-14T16:31:48;31.60;99.90
56298;DHT22;42208;6.376;-10.782;2023-02-14T16:34:37;31.70;99.90
56298;DHT22;42208;6.376;-10.782;2023-02-14T16:37:14;31.90;99.90
56298;DHT22;42208;6.376;-10.782;2023-02-14T16:39:44;31.70;99.90
56298;DHT22;42208;6.376;-10.782;2023-02-14T16:42:17;31.50;99.90
56298;DHT22;42208;6.376;-10.782;2023-02-14T16:44:45;31.60;99.90
56298;DHT22;42208;6.376;-10.782;2023-02-14T16:47:15;31.60;99.90
56298;DHT22;42208;6.376;-10.782;2023-02-14T16:49:45;31.80;99.90
56298;DHT22;42208;6.376;-10.782;2023-02-14T16:52:21;31.80;99.90
56298;DHT22;42208;6.376;-10.782;2023-02-14T16:54:50;32.00;99.90
56298;DHT22;42208;6.376;-10.782;2023-02-14T16:57:37;31.80;99.90
56298;DHT22;42208;6.376;-10.782;2023-02-14T17:00:08;31.20;99.90
56298;DHT22;42208;6.376;-10.782;2023-02-14T17:02:37;31.40;99.90
56298;DHT22;42208;6.376;-10.782;2023-02-14T17:05:05;31.50;99.90
56298;DHT22;42208;6.376;-10.782;2023-02-14T17:07:34;31.60;99.90
56298;DHT22;42208;6.376;-10.782;2023-02-14T17:10:06;31.60;99.90
56298;DHT22;42208;6.376;-10.782;2023-02-14T17:12:41;31.60;99.90
56298;DHT22;42208;6.376;-10.782;2023-02-14T17:15:17;31.70;99.90
56298;DHT22;42208;6.376;-10.782;2023-02-14T17:17:46;31.70;99.90
56298;DHT22;42208;6.376;-10.782;2023-02-14T17:20:15;31.60;99.90
56298;DHT22;42208;6.376;-10.782;2023-02-14T17:22:44;31.70;99.90
56298;DHT22;42208;6.376;-10.782;2023-02-14T17:25:12;31.60;99.90
56298;DHT22;42208;6.376;-10.782;2023-02-14T17:28:42;31.30;99.90
56298;DHT22;42208;6.376;-10.782;2023-02-14T17:31:11;31.20;99.90
56298;DHT22;42208;6.376;-10.782;2023-02-14T17:33:40;31.00;99.90
56298;DHT22;42208;6.376;-10.782;2023-02-14T17:36:11;30.80;99.90
56298;DHT22;42208;6.376;-10.782;2023-02-14T17:38:40;30.70;99.90
56298;DHT22;42208;6.376;-10.782;2023-02-14T17:41:35;30.60;99.90
56298;DHT22;42208;6.376;-10.782;2023-02-14T17:44:03;30.40;99.90
56298;DHT22;42208;6.376;-10.782;2023-02-14T17:46:31;30.20;99.90
56298;DHT22;42208;6.376;-10.782;2023-02-14T17:49:00;30.00;99.90
56298;DHT22;42208;6.376;-10.782;2023-02-14T17:51:29;29.70;99.90
56298;DHT22;42208;6.376;-10.782;2023-02-14T17:53:57;29.60;99.90
56298;DHT22;42208;6.376;-10.782;2023-02-14T17:56:25;29.50;99.90
56298;DHT22;42208;6.376;-10.782;2023-02-14T17:58:54;29.40;99.90
56298;DHT22;42208;6.376;-10.782;2023-02-14T18:01:24;29.40;99.90
56298;DHT22;42208;6.376;-10.782;2023-02-14T18:03:54;29.30;99.90
56298;DHT22;42208;6.376;-10.782;2023-02-14T18:06:22;29.20;99.90
56298;DHT22;42208;6.376;-10.782;2023-02-14T18:08:50;29.10;99.90
56298;DHT22;42208;6.376;-10.782;2023-02-14T18:11:20;29.10;99.90
56298;DHT22;42208;6.376;-10.782;2023-02-14T18:13:49;29.00;99.90
56298;DHT22;42208;6.376;-10.782;2023-02-14T18:16:18;29.10;99.90
56298;DHT22;42208;6.376;-10.782;2023-02-14T18:18:46;29.00;99.90
56298;DHT22;42208;6.376;-10.782;2023-02-14T18:21:16;29.00;99.90
56298;DHT22;42208;6.376;-10.782;2023-02-14T18:23:44;29.00;99.90
56298;DHT22;42208;6.376;-10.782;2023-02-14T18:26:15;28.90;99.90